Time;durP1;ratioP1;P1;durP2;ratioP2;P2;SDS_P1;SDS_P2;PMS_P1;PMS_P2;Temp;Humidity;BMP_temperature;BMP_pressure;BME280_temperature;BME280_humidity;BME280_pressure;Samples;Min_cycle;Max_cycle;Signal;HPM_P1;HPM_P2
2021/10/06 00:01:15;;;;;;;;;0.00;0.00;;;;;12.90;95.35;100853.41;5034550;28;46601;-87
2021/10/06 00:03:41;;;;;;;;;2.00;1.00;;;;;12.63;95.39;100816.91;5018546;28;47139;-87
2021/10/06 00:06:06;;;;;;;;;1.00;0.00;;;;;12.82;95.29;100853.19;5036876;28;45631;-88
2021/10/06 00:08:32;;;;;;;;;0.00;0.00;;;;;12.90;95.74;100863.13;5017949;28;45769;-87
2021/10/06 00:10:57;;;;;;;;;0.25;0.00;;;;;13.09;95.08;100904.59;5017670;28;48374;-86
2021/10/06 00:16:45;;;;;;;;;0.25;0.00;;;;;12.91;95.07;100875.28;5036196;28;45755;-87
2021/10/06 00:19:10;;;;;;;;;0.50;0.00;;;;;13.11;94.98;100903.56;5017962;28;45889;-87
2021/10/06 00:21:35;;;;;;;;;1.00;0.00;;;;;12.85;95.42;100871.34;5017727;28;48864;-87
2021/10/06 00:24:02;;;;;;;;;1.00;0.00;;;;;12.80;95.26;100872.63;5017991;28;48227;-87
2021/10/06 00:26:27;;;;;;;;;0.50;0.50;;;;;13.04;95.47;100911.06;5017580;28;45851;-88
2021/10/06 00:28:53;;;;;;;;;1.50;1.00;;;;;12.72;95.18;100867.13;5018369;28;45536;-87
2021/10/06 00:31:18;;;;;;;;;2.00;0.00;;;;;12.77;95.25;100880.78;5018015;28;47342;-87
2021/10/06 00:33:43;;;;;;;;;0.00;0.00;;;;;13.03;95.42;100921.69;5018030;28;47292;-88
2021/10/06 00:36:10;;;;;;;;;1.50;0.00;;;;;13.09;95.42;100929.13;5019161;28;45655;-88
2021/10/06 00:38:35;;;;;;;;;0.00;0.00;;;;;12.99;95.49;100915.84;5019594;28;45906;-88
2021/10/06 00:41:02;;;;;;;;;0.00;0.00;;;;;13.12;95.40;100941.25;5018635;28;47237;-88
2021/10/06 00:46:50;;;;;;;;;0.50;0.00;;;;;12.84;94.91;100897.75;5040284;28;45810;-88
2021/10/06 00:49:16;;;;;;;;;1.00;0.00;;;;;12.67;95.38;100869.28;5020385;28;45565;-87
2021/10/06 00:51:42;;;;;;;;;2.25;0.00;;;;;13.08;95.31;100929.22;5020547;28;48724;-87
2021/10/06 00:54:08;;;;;;;;;2.00;1.00;;;;;12.97;95.25;100906.38;5019747;28;47169;-87
2021/10/06 00:56:34;;;;;;;;;1.00;0.00;;;;;13.02;95.32;100941.06;5020217;28;46122;-88
2021/10/06 00:58:59;;;;;;;;;0.50;0.50;;;;;12.95;95.38;100910.94;5020890;28;45933;-88
2021/10/06 01:01:25;;;;;;;;;1.25;0.75;;;;;12.91;95.00;100912.09;5035895;28;45665;-88
2021/10/06 01:03:50;;;;;;;;;1.00;0.75;;;;;13.07;94.98;100945.97;5017899;28;48548;-86
2021/10/06 01:06:16;;;;;;;;;1.00;0.25;;;;;13.06;95.45;100931.16;5018058;28;45851;-87
2021/10/06 01:08:42;;;;;;;;;2.25;0.00;;;;;13.02;95.48;100948.94;5018203;28;45841;-87
2021/10/06 01:11:09;;;;;;;;;0.50;0.00;;;;;12.85;95.28;100920.44;5019247;28;47529;-87
2021/10/06 01:16:57;;;;;;;;;2.00;0.00;;;;;12.70;95.27;100905.84;5039470;28;45763;-88
2021/10/06 01:19:25;;;;;;;;;0.50;0.00;;;;;12.48;95.17;100875.91;5021530;28;45942;-88
2021/10/06 01:21:53;;;;;;;;;0.50;0.50;;;;;12.47;95.25;100887.38;5021883;28;48286;-88
2021/10/06 01:24:19;;;;;;;;;0.00;0.00;;;;;12.84;95.28;100945.09;5021752;28;47350;-90
2021/10/06 01:26:45;;;;;;;;;1.50;0.00;;;;;12.70;95.58;100934.75;5021017;28;45688;-86
2021/10/06 01:29:11;;;;;;;;;1.25;0.50;;;;;12.71;95.69;100945.16;5020991;28;46011;-89
2021/10/06 01:31:36;;;;;;;;;1.00;0.00;;;;;12.67;95.59;100935.00;5023620;28;47528;-87
2021/10/06 01:34:02;;;;;;;;;1.00;1.00;;;;;12.59;95.45;100938.19;5025779;28;48445;-88
2021/10/06 01:36:28;;;;;;;;;0.00;0.00;;;;;12.55;95.20;100929.69;5025318;28;45671;-88
2021/10/06 01:38:53;;;;;;;;;0.00;0.00;;;;;12.50;95.12;100936.25;5025520;28;46011;-86
2021/10/06 01:41:19;;;;;;;;;1.00;0.75;;;;;12.74;95.41;100976.47;5025037;28;48127;-87
2021/10/06 01:47:06;;;;;;;;;0.50;0.00;;;;;12.49;95.42;100943.28;5040442;28;45536;-87
2021/10/06 01:49:31;;;;;;;;;1.75;0.00;;;;;12.70;95.28;100974.19;5022649;28;45532;-88
2021/10/06 01:51:57;;;;;;;;;2.00;1.00;;;;;12.42;95.28;100923.66;5023439;28;48344;-88
2021/10/06 01:54:22;;;;;;;;;1.00;1.00;;;;;12.23;95.40;100899.69;5017670;28;47734;-87
2021/10/06 01:56:48;;;;;;;;;1.00;0.00;;;;;12.67;95.58;100972.63;5016808;28;45781;-88
2021/10/06 01:59:13;;;;;;;;;0.00;0.00;;;;;12.53;95.36;100957.03;5017346;28;45666;-87
2021/10/06 02:01:39;;;;;;;;;2.50;0.00;;;;;12.35;95.43;100914.56;5016584;28;48384;-85
2021/10/06 02:04:04;;;;;;;;;0.00;0.00;;;;;12.65;95.20;100966.66;5035002;28;45771;-88
2021/10/06 02:06:30;;;;;;;;;1.00;0.75;;;;;12.64;95.09;100972.84;5016900;28;45553;-86
2021/10/06 02:08:55;;;;;;;;;0.00;0.00;;;;;12.28;95.26;100921.22;5017062;28;45916;-86
2021/10/06 02:11:21;;;;;;;;;1.75;0.75;;;;;11.99;95.19;100864.69;5019298;28;48277;-88
2021/10/06 02:17:08;;;;;;;;;1.00;0.00;;;;;12.36;95.46;100939.88;5038072;28;45721;-88
2021/10/06 02:19:33;;;;;;;;;1.00;0.00;;;;;12.08;95.27;100888.53;5021136;28;45908;-88
2021/10/06 02:21:59;;;;;;;;;0.75;0.75;;;;;12.38;95.53;100937.97;5021506;28;47220;-87
2021/10/06 02:24:24;;;;;;;;;0.25;0.00;;;;;12.55;95.19;100992.78;5020998;28;47178;-88
2021/10/06 02:26:49;;;;;;;;;0.25;0.00;;;;;12.23;95.17;100923.34;5021062;28;45663;-88
2021/10/06 02:32:37;;;;;;;;;0.25;0.00;;;;;12.18;95.29;100928.09;5044756;28;45684;-88
2021/10/06 02:35:04;;;;;;;;;1.00;1.00;;;;;12.13;95.55;100923.19;5024031;28;46828;-89
2021/10/06 02:37:29;;;;;;;;;0.00;0.00;;;;;12.01;95.35;100902.22;5038243;28;45700;-89
2021/10/06 02:39:55;;;;;;;;;0.25;0.00;;;;;12.04;95.66;100915.09;5021212;28;45909;-89
2021/10/06 02:42:20;;;;;;;;;1.50;0.00;;;;;12.25;95.44;100954.75;5020994;28;47541;-89
2021/10/06 02:44:46;;;;;;;;;2.00;1.00;;;;;12.13;95.52;100957.31;5021618;28;48184;-89
2021/10/06 02:47:12;;;;;;;;;1.00;0.00;;;;;12.19;95.52;100949.00;5040610;28;46047;-88
2021/10/06 02:49:38;;;;;;;;;1.50;0.00;;;;;12.03;95.36;100929.19;5022777;28;45786;-87
2021/10/06 02:52:04;;;;;;;;;1.75;0.00;;;;;12.31;95.54;100970.09;5040412;28;45620;-89
2021/10/06 02:54:29;;;;;;;;;1.00;0.50;;;;;12.37;95.85;100988.00;5021299;28;47995;-90
2021/10/06 02:57:01;;;;;;;;;3.25;1.00;;;;;11.83;95.51;100912.22;5023488;28;45620;-89
2021/10/06 03:02:48;;;;;;;;;0.50;0.00;;;;;12.18;95.73;100975.38;5039342;28;45785;-89
2021/10/06 03:05:14;;;;;;;;;1.00;0.00;;;;;12.00;95.47;100939.91;5021767;28;47607;-87
2021/10/06 03:07:40;;;;;;;;;3.00;0.75;;;;;12.42;95.57;101009.53;5022129;28;45670;-89
2021/10/06 03:10:08;;;;;;;;;0.25;0.00;;;;;12.40;95.77;101008.81;5022415;28;45541;-89
2021/10/06 03:12:34;;;;;;;;;0.25;0.00;;;;;12.41;95.72;101013.13;5027093;28;47950;-88
2021/10/06 03:14:59;;;;;;;;;1.00;0.00;;;;;11.82;95.30;100936.84;5031508;28;47297;-89
2021/10/06 03:17:25;;;;;;;;;0.00;0.00;;;;;11.97;95.63;100953.28;5047999;28;45247;-89
2021/10/06 03:19:50;;;;;;;;;1.50;0.00;;;;;12.39;95.54;101026.38;5024695;28;45721;-87
2021/10/06 03:22:15;;;;;;;;;0.00;0.00;;;;;12.05;95.31;100966.69;5029801;28;47464;-88
2021/10/06 03:24:41;;;;;;;;;0.00;0.00;;;;;12.37;95.16;101028.25;5029293;28;48166;-88
2021/10/06 03:27:06;;;;;;;;;0.00;0.00;;;;;12.37;95.48;101038.78;5026095;28;45629;-87
2021/10/06 03:32:54;;;;;;;;;1.00;0.75;;;;;11.83;95.42;100941.09;5043129;28;46035;-88
2021/10/06 03:35:20;;;;;;;;;0.25;0.00;;;;;12.36;95.46;101037.09;5023894;28;47109;-90
2021/10/06 03:37:47;;;;;;;;;0.00;0.00;;;;;12.15;95.34;101001.84;5045934;28;45739;-90
2021/10/06 03:40:12;;;;;;;;;0.00;0.00;;;;;12.26;95.40;101036.06;5023319;28;45667;-89
2021/10/06 03:42:38;;;;;;;;;1.00;0.25;;;;;12.36;95.39;101044.97;5020906;28;48382;-87
2021/10/06 03:48:25;;;;;;;;;1.50;1.00;;;;;12.35;95.68;101069.59;5038194;28;45672;-87
2021/10/06 03:50:51;;;;;;;;;0.00;0.00;;;;;12.03;95.39;101006.19;5021173;28;45888;-87
2021/10/06 03:53:16;;;;;;;;;2.00;0.75;;;;;12.36;95.35;101055.47;5021004;28;47824;-88
2021/10/06 03:55:42;;;;;;;;;0.00;0.00;;;;;11.73;95.69;100961.09;5020875;28;46364;-90
2021/10/06 03:58:08;;;;;;;;;0.00;0.00;;;;;12.05;95.68;101006.91;5044155;28;45534;-88
2021/10/06 04:00:35;;;;;;;;;0.00;0.00;;;;;11.86;95.61;100982.06;5026758;28;45957;-88
2021/10/06 04:03:00;;;;;;;;;0.75;0.00;;;;;12.01;95.68;101010.72;5028479;28;47256;-89
2021/10/06 04:05:26;;;;;;;;;1.00;0.00;;;;;12.35;95.73;101090.59;5028977;28;47840;-88
2021/10/06 04:07:51;;;;;;;;;0.25;0.00;;;;;12.35;95.59;101077.47;5026574;28;45540;-89
2021/10/06 04:10:17;;;;;;;;;1.00;0.00;;;;;11.77;95.68;100978.28;5027632;28;45756;-86
2021/10/06 04:12:43;;;;;;;;;1.00;1.00;;;;;12.34;95.58;101086.28;5026136;28;48414;-89
2021/10/06 04:18:30;;;;;;;;;1.00;0.00;;;;;12.33;95.67;101102.16;5043915;28;45598;-87
2021/10/06 04:20:55;;;;;;;;;0.00;0.00;;;;;12.31;95.48;101075.97;5026412;28;45567;-90
2021/10/06 04:23:21;;;;;;;;;1.00;0.00;;;;;12.00;95.68;101037.06;5026735;28;48640;-88
2021/10/06 04:25:46;;;;;;;;;1.00;0.75;;;;;12.00;95.74;101045.78;5026953;28;47001;-88
2021/10/06 04:28:12;;;;;;;;;1.00;0.00;;;;;12.28;95.50;101086.72;5026302;28;45943;-89
2021/10/06 04:30:37;;;;;;;;;0.00;0.00;;;;;12.10;95.67;101056.47;5044783;28;45677;-90
2021/10/06 04:33:05;;;;;;;;;1.00;0.00;;;;;12.27;95.71;101092.06;5029460;28;48504;-87
2021/10/06 04:35:31;;;;;;;;;1.00;0.00;;;;;12.08;95.61;101064.50;5030749;28;46927;-90
2021/10/06 04:37:56;;;;;;;;;1.00;1.00;;;;;12.24;95.43;101095.78;5026082;28;45575;-90
2021/10/06 04:40:22;;;;;;;;;1.00;0.00;;;;;11.99;95.55;101040.63;5022369;28;45978;-90
2021/10/06 04:42:48;;;;;;;;;1.00;0.00;;;;;11.69;95.40;100988.47;5021804;28;47330;-92
2021/10/06 04:48:37;;;;;;;;;0.00;0.00;;;;;12.18;95.60;101091.78;5039636;28;45593;-90
2021/10/06 04:51:02;;;;;;;;;0.00;0.00;;;;;11.65;95.39;101008.00;5021899;28;45924;-90
2021/10/06 04:53:28;;;;;;;;;0.75;0.50;;;;;12.15;95.78;101101.66;5019690;28;47388;-90
2021/10/06 04:55:53;;;;;;;;;0.00;0.00;;;;;12.02;95.46;101079.84;5018986;28;48164;-89
2021/10/06 04:58:19;;;;;;;;;0.00;0.00;;;;;11.92;95.48;101063.03;5018923;28;46042;-90
2021/10/06 05:04:06;;;;;;;;;0.00;0.00;;;;;11.93;95.63;101072.59;5036082;28;45739;-90
2021/10/06 05:06:44;;;;;;;;;2.00;0.00;;;;;12.06;95.70;101110.19;5020240;28;47152;-90
2021/10/06 05:09:11;;;;;;;;;0.50;0.50;;;;;11.85;95.54;101062.63;5021396;28;45742;-90
2021/10/06 05:11:37;;;;;;;;;0.00;0.00;;;;;11.98;95.47;101089.72;5022681;28;45948;-92
2021/10/06 05:14:27;;;;;;;;;0.00;0.00;;;;;11.72;95.32;101057.31;5021680;28;47369;-90
2021/10/06 05:17:21;;;;;;;;;1.75;0.75;;;;;11.62;95.55;101060.69;5041905;28;46210;-92
2021/10/06 05:19:50;;;;;;;;;0.50;0.25;;;;;11.66;95.64;101067.44;5041525;28;45661;-89
2021/10/06 05:22:18;;;;;;;;;1.00;1.00;;;;;12.11;95.64;101115.94;5024881;28;45568;-92
2021/10/06 05:24:46;;;;;;;;;1.00;1.00;;;;;12.11;95.73;101137.81;5024250;28;48111;-89
2021/10/06 05:27:11;;;;;;;;;1.00;0.00;;;;;12.08;95.69;101142.44;5025158;28;46866;-92
2021/10/06 05:29:37;;;;;;;;;1.00;1.00;;;;;11.58;95.58;101054.81;5020540;28;45719;-89
2021/10/06 05:32:05;;;;;;;;;1.50;1.00;;;;;11.52;95.56;101065.72;5022196;28;45803;-91
2021/10/06 05:34:32;;;;;;;;;1.00;0.50;;;;;11.54;95.63;101053.34;5020952;28;47442;-90
2021/10/06 05:36:58;;;;;;;;;3.00;1.00;;;;;12.10;95.41;101151.03;5021017;28;46175;-91
2021/10/06 05:39:24;;;;;;;;;1.00;0.00;;;;;12.06;95.43;101165.34;5019757;28;45580;-88
2021/10/06 05:41:52;;;;;;;;;1.00;1.00;;;;;12.09;95.44;101158.06;5004216;28;45717;-92
2021/10/06 05:44:23;;;;;;;;;1.75;1.00;;;;;12.06;95.73;101165.34;5021466;28;48625;-90
2021/10/06 05:46:53;;;;;;;;;1.50;1.00;;;;;11.73;95.56;101121.19;5021742;28;47794;-90
2021/10/06 05:49:21;;;;;;;;;1.00;0.00;;;;;12.03;95.63;101158.53;5022241;28;45711;-88
2021/10/06 05:51:55;;;;;;;;;1.00;0.75;;;;;11.65;95.38;101116.47;5023184;28;45693;-89
2021/10/06 05:54:21;;;;;;;;;1.75;1.00;;;;;11.83;95.62;101147.66;5020997;28;48388;-78
2021/10/06 05:56:47;;;;;;;;;2.00;2.00;;;;;11.53;95.58;101113.81;5015224;28;48280;-78
2021/10/06 05:59:12;;;;;;;;;1.00;0.50;;;;;11.74;95.50;101134.22;5033783;28;45712;-80
2021/10/06 06:01:38;;;;;;;;;4.50;3.00;;;;;11.85;95.37;101148.41;5015380;28;45992;-79
2021/10/06 06:04:03;;;;;;;;;5.00;2.75;;;;;11.88;96.02;101163.94;5032780;28;46277;-80
2021/10/06 06:06:29;;;;;;;;;2.00;1.25;;;;;12.03;95.56;101171.66;5033280;28;45888;-79
2021/10/06 06:08:54;;;;;;;;;1.00;1.00;;;;;12.09;95.43;101173.84;5034861;28;45598;-78
2021/10/06 06:11:22;;;;;;;;;2.25;1.00;;;;;12.07;95.32;101180.16;5033884;28;45493;-79
2021/10/06 06:13:48;;;;;;;;;1.25;0.25;;;;;12.10;95.69;101186.03;5034119;28;45486;-77
2021/10/06 06:19:35;;;;;;;;;0.00;0.00;;;;;12.12;95.78;101199.06;5033398;28;45594;-79
2021/10/06 06:22:00;;;;;;;;;8.00;6.50;;;;;12.08;95.71;101171.34;5033537;28;45714;-77
2021/10/06 06:24:27;;;;;;;;;2.00;1.00;;;;;12.12;95.60;101192.03;5033005;28;45561;-79
2021/10/06 06:26:56;;;;;;;;;2.25;1.00;;;;;12.02;95.68;101166.50;5014740;28;48025;-78
2021/10/06 06:29:22;;;;;;;;;2.00;1.00;;;;;12.13;95.30;101201.59;5032842;28;45634;-77
2021/10/06 06:31:48;;;;;;;;;1.25;1.00;;;;;12.16;95.47;101204.00;5033395;28;45544;-76
2021/10/06 06:34:14;;;;;;;;;0.25;0.25;;;;;12.18;95.67;101219.66;5033251;28;45983;-77
2021/10/06 06:36:39;;;;;;;;;3.00;1.00;;;;;12.07;95.45;101191.50;5032857;28;46740;-75
2021/10/06 06:39:05;;;;;;;;;1.25;0.00;;;;;12.18;95.27;101214.41;5032746;28;45685;-79
2021/10/06 06:41:30;;;;;;;;;0.00;0.00;;;;;11.75;95.58;101141.16;5033110;28;45746;-77
2021/10/06 06:43:55;;;;;;;;;1.00;1.00;;;;;12.18;95.41;101204.75;5032822;28;45670;-76
2021/10/06 06:49:43;;;;;;;;;2.00;1.00;;;;;12.05;95.67;101189.91;5032336;28;45641;-77
2021/10/06 06:52:08;;;;;;;;;1.00;1.00;;;;;12.11;95.65;101200.84;5033105;28;45711;-78
2021/10/06 06:54:34;;;;;;;;;1.50;1.00;;;;;12.17;95.30;101215.34;5032304;28;46929;-77
2021/10/06 06:56:59;;;;;;;;;2.00;1.00;;;;;12.26;95.53;101238.34;5034044;28;46197;-79
2021/10/06 06:59:24;;;;;;;;;1.00;1.00;;;;;12.20;95.30;101218.59;5035790;28;45640;-77
2021/10/06 07:01:50;;;;;;;;;1.75;1.00;;;;;12.18;95.47;101236.28;5035940;28;45685;-77
2021/10/06 07:04:15;;;;;;;;;1.50;1.00;;;;;12.29;95.72;101239.94;5035615;28;46926;-77
2021/10/06 07:06:41;;;;;;;;;3.00;2.00;;;;;12.29;95.53;101243.41;5035447;28;46339;-76
2021/10/06 07:09:07;;;;;;;;;1.75;1.00;;;;;12.27;95.26;101234.78;5036485;28;45725;-75
2021/10/06 07:11:33;;;;;;;;;2.00;1.00;;;;;12.26;95.39;101219.97;5037828;28;45479;-77
2021/10/06 07:13:59;;;;;;;;;1.00;1.00;;;;;12.34;95.61;101245.72;5036095;28;45719;-79
2021/10/06 07:19:47;;;;;;;;;2.25;2.00;;;;;12.41;95.12;101258.34;5036448;28;45688;-77
2021/10/06 07:22:14;;;;;;;;;1.75;1.75;;;;;12.45;95.60;101265.09;5036979;28;45619;-77
2021/10/06 07:24:39;;;;;;;;;2.00;0.50;;;;;12.52;95.45;101261.06;5036236;28;45761;-78
2021/10/06 07:27:05;;;;;;;;;2.00;1.00;;;;;12.55;95.40;101273.16;5036080;28;46266;-77
2021/10/06 07:29:31;;;;;;;;;1.75;0.75;;;;;12.52;95.47;101263.69;5035097;28;45681;-75
2021/10/06 07:31:57;;;;;;;;;1.25;1.00;;;;;12.57;95.63;101263.41;5035788;28;45773;-78
2021/10/06 07:34:22;;;;;;;;;1.25;0.00;;;;;12.63;95.51;101274.31;5037804;28;46282;-80
2021/10/06 07:36:47;;;;;;;;;1.00;0.25;;;;;12.53;95.63;101240.88;5036792;28;45751;-82
2021/10/06 07:39:13;;;;;;;;;2.00;1.25;;;;;12.70;95.59;101264.22;5035713;28;45634;-80
2021/10/06 07:41:38;;;;;;;;;1.00;1.00;;;;;12.74;95.18;101264.88;5036096;28;45754;-77
2021/10/06 07:44:04;;;;;;;;;2.00;0.50;;;;;12.73;95.48;101277.16;5035840;28;45725;-80
2021/10/06 07:49:51;;;;;;;;;2.00;0.50;;;;;12.83;95.26;101269.47;5034890;28;45588;-80
2021/10/06 07:52:17;;;;;;;;;3.75;1.00;;;;;12.80;95.35;101274.94;5035291;28;45496;-78
2021/10/06 07:54:45;;;;;;;;;1.75;1.00;;;;;12.76;95.76;101258.53;5035396;28;46720;-79
2021/10/06 07:57:10;;;;;;;;;1.25;0.00;;;;;12.91;95.62;101281.13;5034947;28;45642;-77
2021/10/06 07:59:36;;;;;;;;;2.75;0.50;;;;;12.97;95.32;101291.22;5035229;28;45570;-80
2021/10/06 08:02:03;;;;;;;;;1.00;0.75;;;;;13.02;95.78;101291.75;5035299;28;45776;-79
2021/10/06 08:04:28;;;;;;;;;2.00;2.00;;;;;13.05;95.76;101295.97;5034664;28;45586;-79
2021/10/06 08:06:54;;;;;;;;;2.50;1.25;;;;;13.09;95.45;101299.22;5034989;28;45879;-77
2021/10/06 08:09:20;;;;;;;;;1.00;1.00;;;;;12.99;94.98;101299.00;5033923;28;45713;-80
2021/10/06 08:11:46;;;;;;;;;1.00;0.00;;;;;13.14;95.74;101312.91;5035125;28;45513;-75
2021/10/06 08:14:11;;;;;;;;;0.75;0.75;;;;;13.13;95.60;101300.69;5034995;28;46448;-83
2021/10/06 08:19:58;;;;;;;;;1.00;1.00;;;;;13.21;95.75;101325.53;5034752;28;45626;-80
2021/10/06 08:22:24;;;;;;;;;1.75;1.00;;;;;13.22;95.09;101316.69;5034994;28;45521;-80
2021/10/06 08:24:49;;;;;;;;;1.50;1.00;;;;;13.30;95.71;101318.75;5034633;28;46288;-81
2021/10/06 08:27:15;;;;;;;;;1.75;1.00;;;;;13.30;95.06;101319.63;5034865;28;46114;-78
2021/10/06 08:29:41;;;;;;;;;1.00;1.00;;;;;13.29;95.46;101310.03;5034635;28;45757;-78
2021/10/06 08:32:06;;;;;;;;;1.00;0.50;;;;;13.41;95.35;101329.38;5034761;28;45888;-81
2021/10/06 08:34:32;;;;;;;;;2.00;0.00;;;;;13.47;95.28;101328.94;5034865;28;46271;-80
2021/10/06 08:36:58;;;;;;;;;2.00;1.00;;;;;13.50;95.27;101323.44;5034545;28;46388;-81
2021/10/06 08:39:23;;;;;;;;;1.25;1.00;;;;;13.55;95.15;101328.41;5034806;28;45615;-80
2021/10/06 08:41:49;;;;;;;;;1.50;0.75;;;;;13.59;95.05;101328.06;5035213;28;45740;-78
2021/10/06 08:44:15;;;;;;;;;1.00;1.00;;;;;13.48;95.43;101295.56;5034697;28;45617;-79
2021/10/06 08:50:05;;;;;;;;;0.25;0.25;;;;;13.58;95.25;101307.09;5034006;28;45689;-77
2021/10/06 08:52:30;;;;;;;;;2.00;1.00;;;;;13.75;95.30;101335.69;5034666;28;45679;-78
2021/10/06 08:54:56;;;;;;;;;1.25;1.00;;;;;13.81;95.08;101341.38;5034008;28;45629;-80
2021/10/06 08:57:22;;;;;;;;;1.00;0.50;;;;;13.84;95.38;101335.00;5034383;28;45746;-78
2021/10/06 08:59:47;;;;;;;;;1.00;0.00;;;;;13.83;95.22;101321.00;5034531;28;46037;-79
2021/10/06 09:02:15;;;;;;;;;2.00;1.75;;;;;13.90;95.35;101339.00;5034605;28;45681;-82
2021/10/06 09:04:42;;;;;;;;;1.00;1.00;;;;;13.96;95.66;101349.09;5033663;28;46542;-80
2021/10/06 09:07:08;;;;;;;;;1.00;1.00;;;;;13.99;95.21;101336.53;5034036;28;46171;-78
2021/10/06 09:09:36;;;;;;;;;0.75;0.75;;;;;14.04;95.10;101354.63;5034055;28;45565;-78
2021/10/06 09:12:09;;;;;;;;;1.00;1.00;;;;;14.05;95.43;101338.72;5034171;28;45637;-79
2021/10/06 09:14:39;;;;;;;;;1.50;0.50;;;;;14.12;95.36;101339.94;5033879;28;46436;-77
2021/10/06 09:20:35;;;;;;;;;1.00;1.00;;;;;14.23;95.18;101349.69;5033544;28;45668;-78
2021/10/06 09:23:04;;;;;;;;;1.75;1.00;;;;;14.29;94.93;101362.41;5034254;28;45710;-80
2021/10/06 09:25:36;;;;;;;;;1.00;1.00;;;;;14.32;95.15;101358.69;5033689;28;46287;-77
2021/10/06 09:28:05;;;;;;;;;2.00;1.00;;;;;14.40;95.21;101359.84;5033937;28;45701;-78
2021/10/06 09:30:31;;;;;;;;;2.00;0.25;;;;;14.46;95.04;101358.56;5033573;28;45713;-77
2021/10/06 09:33:00;;;;;;;;;4.50;1.50;;;;;14.51;95.24;101374.88;5034087;28;45511;-77
2021/10/06 09:35:25;;;;;;;;;1.75;1.25;;;;;14.57;95.22;101364.69;5033971;28;47033;-81
2021/10/06 09:37:55;;;;;;;;;3.50;2.00;;;;;14.53;95.17;101359.75;5033676;28;45867;-78
2021/10/06 09:40:23;;;;;;;;;1.00;1.00;;;;;14.61;95.03;101349.47;5033653;28;45602;-79
2021/10/06 09:42:52;;;;;;;;;2.50;1.25;;;;;14.57;95.33;101343.59;5033414;28;45945;-78
2021/10/06 09:45:54;;;;;;;;;0.75;0.75;;;;;14.72;95.14;101365.31;5015921;28;45697;-77
2021/10/06 09:48:34;;;;;;;;;2.75;1.75;;;;;14.79;94.95;101365.69;4952288;28;45723;-76
2021/10/06 09:51:05;;;;;;;;;3.25;2.00;;;;;14.74;94.95;101379.22;4952744;28;45695;-76
2021/10/06 09:53:31;;;;;;;;;2.25;1.00;;;;;14.87;94.98;101358.88;4952632;28;45720;-79
2021/10/06 09:56:04;;;;;;;;;1.75;1.00;;;;;14.83;95.06;101344.25;4952246;28;45799;-76
2021/10/06 09:58:30;;;;;;;;;1.00;1.00;;;;;14.96;94.76;101370.50;4935791;28;46890;-77
2021/10/06 10:00:57;;;;;;;;;2.00;1.00;;;;;14.99;94.97;101367.63;4952694;28;45641;-78
2021/10/06 10:03:23;;;;;;;;;1.25;1.00;;;;;15.03;94.88;101371.72;4952438;28;45722;-79
2021/10/06 10:05:49;;;;;;;;;3.00;1.00;;;;;15.06;95.27;101374.94;4952259;28;45666;-76
2021/10/06 10:08:15;;;;;;;;;2.50;0.00;;;;;15.10;95.23;101381.69;4952057;28;46573;-81
2021/10/06 10:10:41;;;;;;;;;0.25;0.25;;;;;15.18;95.09;101374.94;4952218;28;45583;-79
2021/10/06 10:13:06;;;;;;;;;1.25;1.00;;;;;15.18;94.91;101372.31;4952147;28;45736;-78
2021/10/06 10:15:32;;;;;;;;;2.00;1.00;;;;;15.27;95.00;101368.97;4952977;28;46530;-78
2021/10/06 10:18:03;;;;;;;;;1.25;1.00;;;;;15.31;94.97;101381.81;4955078;28;46860;-78
2021/10/06 10:20:33;;;;;;;;;2.00;1.00;;;;;15.36;95.14;101390.22;4955914;28;45750;-77
2021/10/06 10:23:04;;;;;;;;;1.00;1.00;;;;;15.40;95.00;101377.59;4955951;28;45813;-79
2021/10/06 10:25:38;;;;;;;;;2.00;1.00;;;;;15.45;94.93;101375.44;5009475;28;45581;-77
2021/10/06 10:28:18;;;;;;;;;2.25;2.00;;;;;15.47;94.71;101389.38;5037652;28;45907;-77
2021/10/06 10:30:55;;;;;;;;;1.00;1.00;;;;;15.56;94.75;101396.59;5036856;28;45594;-79
2021/10/06 10:33:48;;;;;;;;;0.00;0.00;;;;;15.59;94.88;101409.56;5037448;28;45539;-80
2021/10/06 10:36:35;;;;;;;;;2.00;1.00;;;;;15.61;94.94;101406.78;5032771;28;45695;-78
2021/10/06 10:39:25;;;;;;;;;1.00;1.00;;;;;15.62;95.17;101411.09;5036258;28;46016;-78
2021/10/06 10:41:56;;;;;;;;;1.00;1.00;;;;;15.67;94.98;101393.94;5036642;28;45700;-79
2021/10/06 10:44:33;;;;;;;;;0.50;0.50;;;;;15.75;94.91;101404.75;5036501;28;45802;-80
2021/10/06 10:47:02;;;;;;;;;2.25;1.00;;;;;15.73;94.98;101389.94;5036028;28;46764;-78
2021/10/06 10:49:41;;;;;;;;;1.00;1.00;;;;;15.81;94.92;101393.69;5036119;28;45717;-79
2021/10/06 10:52:07;;;;;;;;;2.75;2.00;;;;;15.86;94.65;101395.94;5036783;28;45646;-79
2021/10/06 10:54:39;;;;;;;;;3.50;1.50;;;;;15.76;94.88;101361.47;5037080;28;45732;-78
2021/10/06 10:57:23;;;;;;;;;1.00;1.00;;;;;16.01;94.86;101399.16;5036957;28;46444;-79
2021/10/06 10:59:52;;;;;;;;;1.00;0.50;;;;;16.10;94.77;101407.16;5036551;28;46057;-77
2021/10/06 11:02:29;;;;;;;;;2.50;1.75;;;;;16.15;94.61;101409.44;5036276;28;45615;-80
2021/10/06 11:05:07;;;;;;;;;1.50;1.00;;;;;16.20;94.76;101407.25;5035722;28;45701;-79
2021/10/06 11:07:33;;;;;;;;;3.00;1.00;;;;;16.23;94.73;101391.16;5036077;28;46452;-79
2021/10/06 11:10:18;;;;;;;;;1.50;1.00;;;;;16.24;94.77;101404.25;5036029;28;45930;-78
2021/10/06 11:12:54;;;;;;;;;3.25;2.00;;;;;16.28;94.56;101400.38;5035912;28;45731;-77
2021/10/06 11:18:53;;;;;;;;;0.25;0.00;;;;;16.33;95.02;101406.13;5035811;28;46154;-80
2021/10/06 11:21:36;;;;;;;;;2.75;2.00;;;;;16.41;94.80;101409.94;5035902;28;45945;-79
2021/10/06 11:24:22;;;;;;;;;2.00;1.00;;;;;16.35;94.73;101398.91;5036003;28;45526;-78
2021/10/06 11:26:57;;;;;;;;;3.00;1.00;;;;;16.44;94.32;101434.34;5035988;28;45528;-76
2021/10/06 11:29:23;;;;;;;;;2.50;1.75;;;;;16.44;94.70;101417.63;5035661;28;46375;-78
2021/10/06 11:35:10;;;;;;;;;2.75;1.00;;;;;16.47;94.69;101418.19;5035616;28;45678;-78
2021/10/06 11:37:35;;;;;;;;;1.00;1.00;;;;;16.49;94.55;101400.41;5035697;28;45550;-77
2021/10/06 11:40:00;;;;;;;;;1.00;1.00;;;;;16.53;94.42;101401.81;5035298;28;46332;-81
2021/10/06 11:42:33;;;;;;;;;3.00;1.00;;;;;16.58;94.51;101410.22;5034704;28;45570;-79
2021/10/06 11:44:58;;;;;;;;;2.25;1.50;;;;;16.62;94.34;101421.44;5034898;28;45468;-78
2021/10/06 11:50:46;;;;;;;;;2.00;1.00;;;;;16.61;94.50;101415.28;5035068;28;45562;-78
2021/10/06 11:53:12;;;;;;;;;1.00;1.00;;;;;16.63;94.16;101423.09;5035142;28;45590;-77
2021/10/06 11:55:47;;;;;;;;;1.00;1.00;;;;;16.69;94.43;101415.47;5035206;28;45597;-78
2021/10/06 11:58:31;;;;;;;;;1.50;0.50;;;;;16.72;94.38;101423.19;5035339;28;45478;-78
2021/10/06 12:01:23;;;;;;;;;1.50;1.00;;;;;16.75;93.84;101414.97;5035168;28;46299;-78
2021/10/06 12:03:49;;;;;;;;;0.25;0.00;;;;;16.75;93.61;101416.78;5031320;28;45939;-77
2021/10/06 12:06:19;;;;;;;;;0.75;0.75;;;;;16.82;93.77;101412.66;5035289;28;45699;-76
2021/10/06 12:08:46;;;;;;;;;1.00;1.00;;;;;16.80;91.18;101435.75;5035019;28;45539;-77
2021/10/06 12:11:15;;;;;;;;;0.00;0.00;;;;;16.79;92.02;101426.97;5034644;28;47645;-78
2021/10/06 12:13:41;;;;;;;;;1.00;1.00;;;;;16.84;92.98;101423.97;5035014;28;45621;-76
2021/10/06 12:16:26;;;;;;;;;1.00;1.00;;;;;16.82;92.81;101432.97;5034830;28;45852;-79
2021/10/06 12:18:55;;;;;;;;;1.00;1.00;;;;;16.76;93.14;101405.22;5034830;28;45895;-80
2021/10/06 12:21:21;;;;;;;;;0.00;0.00;;;;;16.86;93.43;101421.16;5016997;28;46493;-79
2021/10/06 12:23:46;;;;;;;;;3.00;1.00;;;;;16.82;93.09;101425.03;5034606;28;47244;-77
2021/10/06 12:26:12;;;;;;;;;1.25;1.25;;;;;16.84;91.42;101444.28;5034847;28;45547;-79
2021/10/06 12:28:56;;;;;;;;;0.00;0.00;;;;;16.70;92.21;101406.59;5034736;28;45752;-79
2021/10/06 12:31:26;;;;;;;;;1.25;0.75;;;;;16.84;92.85;101434.53;5034691;28;46313;-81
2021/10/06 12:34:03;;;;;;;;;1.00;1.00;;;;;16.84;91.67;101446.94;5034717;28;45946;-76
2021/10/06 12:36:28;;;;;;;;;2.00;1.00;;;;;16.90;92.56;101449.03;5034480;28;45525;-77
2021/10/06 12:38:54;;;;;;;;;1.00;1.00;;;;;16.93;92.54;101441.69;5034455;28;45866;-76
2021/10/06 12:41:19;;;;;;;;;1.00;0.50;;;;;16.87;91.17;101434.28;5034567;28;45611;-80